sensor_id;sensor_type;location;lat;lon;timestamp;temperature;humidity
22112;DHT22;11222;50.872;4.312;2023-03-23T00:00:59;13.30;99.90
22112;DHT22;11222;50.872;4.312;2023-03-23T00:03:26;13.30;99.90
22112;DHT22;11222;50.872;4.312;2023-03-23T00:05:55;13.30;99.90
22112;DHT22;11222;50.872;4.312;2023-03-23T00:08:25;13.40;99.90
22112;DHT22;11222;50.872;4.312;2023-03-23T00:10:52;13.40;99.90
22112;DHT22;11222;50.872;4.312;2023-03-23T00:13:25;13.40;99.90
22112;DHT22;11222;50.872;4.312;2023-03-23T00:15:51;13.40;99.90
22112;DHT22;11222;50.872;4.312;2023-03-23T00:18:22;13.40;99.90
22112;DHT22;11222;50.872;4.312;2023-03-23T00:20:50;13.40;99.90
22112;DHT22;11222;50.872;4.312;2023-03-23T00:23:18;13.40;99.90
22112;DHT22;11222;50.872;4.312;2023-03-23T00:25:49;13.40;99.90
22112;DHT22;11222;50.872;4.312;2023-03-23T00:28:16;13.40;99.90
22112;DHT22;11222;50.872;4.312;2023-03-23T00:30:42;13.40;99.90
22112;DHT22;11222;50.872;4.312;2023-03-23T00:33:10;13.40;99.90
22112;DHT22;11222;50.872;4.312;2023-03-23T00:35:40;13.40;99.90
22112;DHT22;11222;50.872;4.312;2023-03-23T00:38:06;13.40;99.90
22112;DHT22;11222;50.872;4.312;2023-03-23T00:40:31;13.40;99.90
22112;DHT22;11222;50.872;4.312;2023-03-23T00:43:01;13.40;99.90
22112;DHT22;11222;50.872;4.312;2023-03-23T00:45:29;13.30;99.90
22112;DHT22;11222;50.872;4.312;2023-03-23T00:47:55;13.30;99.90
22112;DHT22;11222;50.872;4.312;2023-03-23T00:50:21;13.30;99.90
22112;DHT22;11222;50.872;4.312;2023-03-23T00:52:47;13.30;99.90
22112;DHT22;11222;50.872;4.312;2023-03-23T00:55:17;13.30;99.90
22112;DHT22;11222;50.872;4.312;2023-03-23T00:57:43;13.30;99.90
22112;DHT22;11222;50.872;4.312;2023-03-23T01:00:09;13.30;99.90
22112;DHT22;11222;50.872;4.312;2023-03-23T01:02:36;13.30;99.90
22112;DHT22;11222;50.872;4.312;2023-03-23T01:05:02;13.30;99.90
22112;DHT22;11222;50.872;4.312;2023-03-23T01:07:28;13.30;99.90
22112;DHT22;11222;50.872;4.312;2023-03-23T01:09:56;13.30;99.90
22112;DHT22;11222;50.872;4.312;2023-03-23T01:12:23;13.30;99.90
22112;DHT22;11222;50.872;4.312;2023-03-23T01:14:50;13.30;99.90
22112;DHT22;11222;50.872;4.312;2023-03-23T01:17:16;13.30;99.90
22112;DHT22;11222;50.872;4.312;2023-03-23T01:19:44;13.30;99.90
22112;DHT22;11222;50.872;4.312;2023-03-23T01:22:09;13.30;99.90
22112;DHT22;11222;50.872;4.312;2023-03-23T01:24:35;13.30;99.90
22112;DHT22;11222;50.872;4.312;2023-03-23T01:27:01;13.30;99.90
22112;DHT22;11222;50.872;4.312;2023-03-23T01:29:35;13.30;99.90
22112;DHT22;11222;50.872;4.312;2023-03-23T01:32:01;13.30;99.90
22112;DHT22;11222;50.872;4.312;2023-03-23T01:34:27;13.30;99.90
22112;DHT22;11222;50.872;4.312;2023-03-23T01:36:53;13.30;99.90
22112;DHT22;11222;50.872;4.312;2023-03-23T01:39:18;13.30;99.90
22112;DHT22;11222;50.872;4.312;2023-03-23T01:41:44;13.20;99.90
22112;DHT22;11222;50.872;4.312;2023-03-23T01:46:42;13.20;99.90
22112;DHT22;11222;50.872;4.312;2023-03-23T01:49:19;13.20;99.90
22112;DHT22;11222;50.872;4.312;2023-03-23T01:51:58;13.20;99.90
22112;DHT22;11222;50.872;4.312;2023-03-23T01:54:26;13.20;99.90
22112;DHT22;11222;50.872;4.312;2023-03-23T01:56:59;13.20;99.90
22112;DHT22;11222;50.872;4.312;2023-03-23T01:59:26;13.20;99.90
22112;DHT22;11222;50.872;4.312;2023-03-23T02:01:54;13.20;99.90
22112;DHT22;11222;50.872;4.312;2023-03-23T02:04:21;13.20;99.90
22112;DHT22;11222;50.872;4.312;2023-03-23T02:06:48;13.20;99.90
22112;DHT22;11222;50.872;4.312;2023-03-23T02:09:14;13.10;99.90
22112;DHT22;11222;50.872;4.312;2023-03-23T02:11:43;13.10;99.90
22112;DHT22;11222;50.872;4.312;2023-03-23T02:14:09;13.10;99.90
22112;DHT22;11222;50.872;4.312;2023-03-23T02:16:48;13.10;99.90
22112;DHT22;11222;50.872;4.312;2023-03-23T02:33:21;13.10;99.90
22112;DHT22;11222;50.872;4.312;2023-03-23T02:36:29;13.10;99.90
22112;DHT22;11222;50.872;4.312;2023-03-23T02:41:55;13.00;99.90
22112;DHT22;11222;50.872;4.312;2023-03-23T02:44:19;13.00;99.90
22112;DHT22;11222;50.872;4.312;2023-03-23T02:46:48;13.00;99.90
22112;DHT22;11222;50.872;4.312;2023-03-23T02:49:15;13.10;99.90
22112;DHT22;11222;50.872;4.312;2023-03-23T02:51:44;13.10;99.90
22112;DHT22;11222;50.872;4.312;2023-03-23T02:54:12;13.10;99.90
22112;DHT22;11222;50.872;4.312;2023-03-23T02:56:39;13.00;99.90
22112;DHT22;11222;50.872;4.312;2023-03-23T02:59:06;13.00;99.90
22112;DHT22;11222;50.872;4.312;2023-03-23T03:04:30;13.00;99.90
22112;DHT22;11222;50.872;4.312;2023-03-23T03:07:07;13.00;99.90
22112;DHT22;11222;50.872;4.312;2023-03-23T03:09:57;13.00;99.90
22112;DHT22;11222;50.872;4.312;2023-03-23T03:18:15;13.00;99.90
22112;DHT22;11222;50.872;4.312;2023-03-23T03:20:45;13.00;99.90
22112;DHT22;11222;50.872;4.312;2023-03-23T03:23:12;13.00;99.90
22112;DHT22;11222;50.872;4.312;2023-03-23T03:25:40;13.00;99.90
22112;DHT22;11222;50.872;4.312;2023-03-23T03:28:14;13.10;99.90
22112;DHT22;11222;50.872;4.312;2023-03-23T03:30:42;13.00;99.90
22112;DHT22;11222;50.872;4.312;2023-03-23T03:33:09;13.00;99.90
22112;DHT22;11222;50.872;4.312;2023-03-23T03:35:37;13.00;99.90
22112;DHT22;11222;50.872;4.312;2023-03-23T03:38:07;13.00;99.90
22112;DHT22;11222;50.872;4.312;2023-03-23T03:40:34;13.00;99.90
22112;DHT22;11222;50.872;4.312;2023-03-23T03:43:00;13.00;99.90
22112;DHT22;11222;50.872;4.312;2023-03-23T03:45:26;13.00;99.90
22112;DHT22;11222;50.872;4.312;2023-03-23T03:47:52;13.00;99.90
22112;DHT22;11222;50.872;4.312;2023-03-23T03:50:18;13.00;99.90
22112;DHT22;11222;50.872;4.312;2023-03-23T03:52:43;13.00;99.90
22112;DHT22;11222;50.872;4.312;2023-03-23T03:55:10;13.00;99.90
22112;DHT22;11222;50.872;4.312;2023-03-23T03:57:36;12.90;99.90
22112;DHT22;11222;50.872;4.312;2023-03-23T04:00:04;12.90;99.90
22112;DHT22;11222;50.872;4.312;2023-03-23T04:02:40;13.00;99.90
22112;DHT22;11222;50.872;4.312;2023-03-23T04:05:07;12.90;99.90
22112;DHT22;11222;50.872;4.312;2023-03-23T04:07:34;13.00;99.90
22112;DHT22;11222;50.872;4.312;2023-03-23T04:10:02;12.90;99.90
22112;DHT22;11222;50.872;4.312;2023-03-23T04:12:29;12.90;99.90
22112;DHT22;11222;50.872;4.312;2023-03-23T04:14:55;12.90;99.90
22112;DHT22;11222;50.872;4.312;2023-03-23T04:17:21;12.90;99.90
22112;DHT22;11222;50.872;4.312;2023-03-23T04:19:47;12.90;99.90
22112;DHT22;11222;50.872;4.312;2023-03-23T04:22:13;12.90;99.90
22112;DHT22;11222;50.872;4.312;2023-03-23T04:24:38;12.90;99.90
22112;DHT22;11222;50.872;4.312;2023-03-23T04:27:04;12.90;99.90
22112;DHT22;11222;50.872;4.312;2023-03-23T04:29:30;12.90;99.90
22112;DHT22;11222;50.872;4.312;2023-03-23T04:31:56;12.90;99.90
22112;DHT22;11222;50.872;4.312;2023-03-23T04:34:22;12.80;99.90
22112;DHT22;11222;50.872;4.312;2023-03-23T04:36:48;12.80;99.90
22112;DHT22;11222;50.872;4.312;2023-03-23T04:39:14;12.80;99.90
22112;DHT22;11222;50.872;4.312;2023-03-23T04:41:41;12.80;99.90
22112;DHT22;11222;50.872;4.312;2023-03-23T04:44:07;12.80;99.90
22112;DHT22;11222;50.872;4.312;2023-03-23T04:46:33;12.80;99.90
22112;DHT22;11222;50.872;4.312;2023-03-23T04:48:59;12.90;99.90
22112;DHT22;11222;50.872;4.312;2023-03-23T04:51:29;12.90;99.90
22112;DHT22;11222;50.872;4.312;2023-03-23T04:53:54;12.80;99.90
22112;DHT22;11222;50.872;4.312;2023-03-23T04:56:20;12.70;99.90
22112;DHT22;11222;50.872;4.312;2023-03-23T04:58:46;12.70;99.90
22112;DHT22;11222;50.872;4.312;2023-03-23T05:01:13;12.70;99.90
22112;DHT22;11222;50.872;4.312;2023-03-23T05:03:43;12.60;99.90
22112;DHT22;11222;50.872;4.312;2023-03-23T05:06:09;12.60;99.90
22112;DHT22;11222;50.872;4.312;2023-03-23T05:08:35;12.60;99.90
22112;DHT22;11222;50.872;4.312;2023-03-23T05:11:05;12.60;99.90
22112;DHT22;11222;50.872;4.312;2023-03-23T05:13:31;12.60;99.90
22112;DHT22;11222;50.872;4.312;2023-03-23T05:15:57;12.60;99.90
22112;DHT22;11222;50.872;4.312;2023-03-23T05:18:22;12.60;99.90
22112;DHT22;11222;50.872;4.312;2023-03-23T05:20:48;12.60;99.90
22112;DHT22;11222;50.872;4.312;2023-03-23T05:23:14;12.60;99.90
22112;DHT22;11222;50.872;4.312;2023-03-23T05:25:41;12.60;99.90
22112;DHT22;11222;50.872;4.312;2023-03-23T05:28:08;12.60;99.90
22112;DHT22;11222;50.872;4.312;2023-03-23T05:30:34;12.60;99.90
22112;DHT22;11222;50.872;4.312;2023-03-23T05:33:01;12.60;99.90
22112;DHT22;11222;50.872;4.312;2023-03-23T05:35:27;12.60;99.90
22112;DHT22;11222;50.872;4.312;2023-03-23T05:37:52;12.60;99.90
22112;DHT22;11222;50.872;4.312;2023-03-23T05:40:19;12.60;99.90
22112;DHT22;11222;50.872;4.312;2023-03-23T05:42:45;12.70;99.90
22112;DHT22;11222;50.872;4.312;2023-03-23T05:45:12;12.70;99.90
22112;DHT22;11222;50.872;4.312;2023-03-23T05:47:38;12.70;99.90
22112;DHT22;11222;50.872;4.312;2023-03-23T05:50:06;12.70;99.90
22112;DHT22;11222;50.872;4.312;2023-03-23T05:52:35;12.70;99.90
22112;DHT22;11222;50.872;4.312;2023-03-23T05:55:03;12.70;99.90
22112;DHT22;11222;50.872;4.312;2023-03-23T05:57:29;12.70;99.90
22112;DHT22;11222;50.872;4.312;2023-03-23T05:59:56;12.70;99.90
22112;DHT22;11222;50.872;4.312;2023-03-23T06:02:23;12.70;99.90
22112;DHT22;11222;50.872;4.312;2023-03-23T06:04:50;12.70;99.90
22112;DHT22;11222;50.872;4.312;2023-03-23T06:07:16;12.70;99.90
22112;DHT22;11222;50.872;4.312;2023-03-23T06:09:42;12.70;99.90
22112;DHT22;11222;50.872;4.312;2023-03-23T06:12:09;12.70;99.90
22112;DHT22;11222;50.872;4.312;2023-03-23T06:14:36;12.80;99.90
22112;DHT22;11222;50.872;4.312;2023-03-23T06:17:02;12.80;99.90
22112;DHT22;11222;50.872;4.312;2023-03-23T06:19:28;12.80;99.90
22112;DHT22;11222;50.872;4.312;2023-03-23T06:21:56;12.80;99.90
22112;DHT22;11222;50.872;4.312;2023-03-23T06:24:22;12.80;99.90
22112;DHT22;11222;50.872;4.312;2023-03-23T06:26:48;12.80;99.90
22112;DHT22;11222;50.872;4.312;2023-03-23T06:29:15;12.80;99.90
22112;DHT22;11222;50.872;4.312;2023-03-23T06:31:48;12.90;99.90
22112;DHT22;11222;50.872;4.312;2023-03-23T06:34:15;12.80;99.90
22112;DHT22;11222;50.872;4.312;2023-03-23T06:36:40;12.80;99.90
22112;DHT22;11222;50.872;4.312;2023-03-23T06:39:09;12.80;99.90
22112;DHT22;11222;50.872;4.312;2023-03-23T06:41:35;12.80;99.90
22112;DHT22;11222;50.872;4.312;2023-03-23T06:44:00;12.90;99.90
22112;DHT22;11222;50.872;4.312;2023-03-23T06:46:27;12.90;99.90
22112;DHT22;11222;50.872;4.312;2023-03-23T06:48:54;12.90;99.90
22112;DHT22;11222;50.872;4.312;2023-03-23T06:51:20;12.90;99.90
22112;DHT22;11222;50.872;4.312;2023-03-23T06:53:46;12.90;99.90
22112;DHT22;11222;50.872;4.312;2023-03-23T06:56:12;12.30;99.90
22112;DHT22;11222;50.872;4.312;2023-03-23T06:58:39;12.10;99.90
22112;DHT22;11222;50.872;4.312;2023-03-23T07:01:05;11.80;99.90
22112;DHT22;11222;50.872;4.312;2023-03-23T07:03:31;11.40;99.90
22112;DHT22;11222;50.872;4.312;2023-03-23T07:05:57;11.10;99.90
22112;DHT22;11222;50.872;4.312;2023-03-23T07:08:24;10.80;99.90
22112;DHT22;11222;50.872;4.312;2023-03-23T07:10:54;10.70;99.90
22112;DHT22;11222;50.872;4.312;2023-03-23T07:13:21;10.60;99.90
22112;DHT22;11222;50.872;4.312;2023-03-23T07:15:47;10.60;99.90
22112;DHT22;11222;50.872;4.312;2023-03-23T07:18:14;10.50;99.90
22112;DHT22;11222;50.872;4.312;2023-03-23T07:20:40;10.30;99.90
22112;DHT22;11222;50.872;4.312;2023-03-23T07:23:07;10.20;99.90
22112;DHT22;11222;50.872;4.312;2023-03-23T07:25:33;10.20;99.90
22112;DHT22;11222;50.872;4.312;2023-03-23T07:28:01;10.30;99.90
22112;DHT22;11222;50.872;4.312;2023-03-23T07:30:28;10.30;99.90
22112;DHT22;11222;50.872;4.312;2023-03-23T07:32:57;10.40;99.90
22112;DHT22;11222;50.872;4.312;2023-03-23T07:35:24;10.60;99.90
22112;DHT22;11222;50.872;4.312;2023-03-23T07:37:51;10.60;99.90
22112;DHT22;11222;50.872;4.312;2023-03-23T07:40:18;10.70;99.90
22112;DHT22;11222;50.872;4.312;2023-03-23T07:42:46;10.90;99.90
22112;DHT22;11222;50.872;4.312;2023-03-23T07:45:15;11.00;99.90
22112;DHT22;11222;50.872;4.312;2023-03-23T07:47:41;11.10;99.90
22112;DHT22;11222;50.872;4.312;2023-03-23T07:50:07;11.20;99.90
22112;DHT22;11222;50.872;4.312;2023-03-23T07:52:35;11.40;99.90
22112;DHT22;11222;50.872;4.312;2023-03-23T07:55:01;11.50;99.90
22112;DHT22;11222;50.872;4.312;2023-03-23T07:57:29;11.50;99.90
22112;DHT22;11222;50.872;4.312;2023-03-23T07:59:55;11.60;99.90
22112;DHT22;11222;50.872;4.312;2023-03-23T08:02:23;11.60;99.90
22112;DHT22;11222;50.872;4.312;2023-03-23T08:04:49;11.70;99.90
22112;DHT22;11222;50.872;4.312;2023-03-23T08:07:14;11.70;99.90
22112;DHT22;11222;50.872;4.312;2023-03-23T08:09:42;11.80;99.90
22112;DHT22;11222;50.872;4.312;2023-03-23T08:12:07;11.80;99.90
22112;DHT22;11222;50.872;4.312;2023-03-23T08:14:33;11.80;99.90
22112;DHT22;11222;50.872;4.312;2023-03-23T08:16:59;11.80;99.90
22112;DHT22;11222;50.872;4.312;2023-03-23T08:19:25;11.80;99.90
22112;DHT22;11222;50.872;4.312;2023-03-23T08:21:51;11.70;99.90
22112;DHT22;11222;50.872;4.312;2023-03-23T08:24:18;11.70;99.90
22112;DHT22;11222;50.872;4.312;2023-03-23T08:26:44;11.50;99.90
22112;DHT22;11222;50.872;4.312;2023-03-23T08:29:10;11.40;99.90
22112;DHT22;11222;50.872;4.312;2023-03-23T08:31:36;11.30;99.90
22112;DHT22;11222;50.872;4.312;2023-03-23T08:34:03;11.20;99.90
22112;DHT22;11222;50.872;4.312;2023-03-23T08:36:32;11.20;99.90
22112;DHT22;11222;50.872;4.312;2023-03-23T08:38:58;11.30;99.90
22112;DHT22;11222;50.872;4.312;2023-03-23T08:41:25;11.20;99.90
22112;DHT22;11222;50.872;4.312;2023-03-23T08:43:51;11.30;99.90
22112;DHT22;11222;50.872;4.312;2023-03-23T08:46:18;11.30;99.90
22112;DHT22;11222;50.872;4.312;2023-03-23T08:48:45;11.20;99.90
22112;DHT22;11222;50.872;4.312;2023-03-23T08:51:12;11.30;99.90
22112;DHT22;11222;50.872;4.312;2023-03-23T08:53:38;11.40;99.90
22112;DHT22;11222;50.872;4.312;2023-03-23T08:56:08;11.60;99.90
22112;DHT22;11222;50.872;4.312;2023-03-23T08:58:36;11.70;99.90
22112;DHT22;11222;50.872;4.312;2023-03-23T09:01:02;11.90;99.90
22112;DHT22;11222;50.872;4.312;2023-03-23T09:03:28;11.90;99.90
22112;DHT22;11222;50.872;4.312;2023-03-23T09:05:58;11.90;99.90
22112;DHT22;11222;50.872;4.312;2023-03-23T09:08:26;11.80;99.90
22112;DHT22;11222;50.872;4.312;2023-03-23T09:10:55;11.80;99.90
22112;DHT22;11222;50.872;4.312;2023-03-23T09:13:20;11.80;99.90
22112;DHT22;11222;50.872;4.312;2023-03-23T09:15:46;11.80;99.90
22112;DHT22;11222;50.872;4.312;2023-03-23T09:18:13;12.00;99.90
22112;DHT22;11222;50.872;4.312;2023-03-23T09:20:39;12.10;99.90
22112;DHT22;11222;50.872;4.312;2023-03-23T09:23:05;12.20;99.90
22112;DHT22;11222;50.872;4.312;2023-03-23T09:25:31;12.30;99.90
22112;DHT22;11222;50.872;4.312;2023-03-23T09:27:57;12.50;99.90
22112;DHT22;11222;50.872;4.312;2023-03-23T09:30:29;12.40;99.90
22112;DHT22;11222;50.872;4.312;2023-03-23T09:32:56;12.40;99.90
22112;DHT22;11222;50.872;4.312;2023-03-23T09:35:22;12.50;99.90
22112;DHT22;11222;50.872;4.312;2023-03-23T09:37:50;12.50;99.90
22112;DHT22;11222;50.872;4.312;2023-03-23T09:40:45;12.80;99.90
22112;DHT22;11222;50.872;4.312;2023-03-23T09:48:51;14.40;99.90
22112;DHT22;11222;50.872;4.312;2023-03-23T09:56:36;15.30;99.90
22112;DHT22;11222;50.872;4.312;2023-03-23T10:02:40;14.30;99.90
22112;DHT22;11222;50.872;4.312;2023-03-23T10:07:49;14.20;99.90
22112;DHT22;11222;50.872;4.312;2023-03-23T10:10:14;14.00;99.90
22112;DHT22;11222;50.872;4.312;2023-03-23T10:12:56;14.00;99.90
22112;DHT22;11222;50.872;4.312;2023-03-23T10:15:32;13.90;99.90
22112;DHT22;11222;50.872;4.312;2023-03-23T10:31:41;13.70;99.90
22112;DHT22;11222;50.872;4.312;2023-03-23T10:34:13;13.80;99.90
22112;DHT22;11222;50.872;4.312;2023-03-23T10:36:56;13.80;99.90
22112;DHT22;11222;50.872;4.312;2023-03-23T10:39:30;13.90;99.90
22112;DHT22;11222;50.872;4.312;2023-03-23T10:41:57;13.70;99.90
22112;DHT22;11222;50.872;4.312;2023-03-23T10:44:28;13.70;99.90
22112;DHT22;11222;50.872;4.312;2023-03-23T10:47:03;13.70;99.90
22112;DHT22;11222;50.872;4.312;2023-03-23T10:49:43;13.80;99.90
22112;DHT22;11222;50.872;4.312;2023-03-23T10:54:57;14.30;99.90
22112;DHT22;11222;50.872;4.312;2023-03-23T10:57:29;14.50;99.90
22112;DHT22;11222;50.872;4.312;2023-03-23T11:02:44;14.70;99.90
22112;DHT22;11222;50.872;4.312;2023-03-23T11:05:19;15.00;99.90
22112;DHT22;11222;50.872;4.312;2023-03-23T11:07:54;15.30;99.90
22112;DHT22;11222;50.872;4.312;2023-03-23T11:10:27;15.40;99.90
22112;DHT22;11222;50.872;4.312;2023-03-23T11:12:58;16.40;99.90
22112;DHT22;11222;50.872;4.312;2023-03-23T11:15:28;17.00;99.90
22112;DHT22;11222;50.872;4.312;2023-03-23T11:18:11;18.10;99.90
22112;DHT22;11222;50.872;4.312;2023-03-23T11:20:44;18.20;99.90
22112;DHT22;11222;50.872;4.312;2023-03-23T11:23:21;18.10;99.90
22112;DHT22;11222;50.872;4.312;2023-03-23T11:26:14;17.60;99.90
22112;DHT22;11222;50.872;4.312;2023-03-23T11:28:55;16.20;99.90
22112;DHT22;11222;50.872;4.312;2023-03-23T11:31:23;15.50;99.90
22112;DHT22;11222;50.872;4.312;2023-03-23T11:34:02;15.10;99.90
22112;DHT22;11222;50.872;4.312;2023-03-23T11:36:37;15.80;99.90
22112;DHT22;11222;50.872;4.312;2023-03-23T11:39:24;15.80;99.90
22112;DHT22;11222;50.872;4.312;2023-03-23T11:41:51;15.40;99.90
22112;DHT22;11222;50.872;4.312;2023-03-23T11:44:17;16.10;99.90
22112;DHT22;11222;50.872;4.312;2023-03-23T11:47:07;17.60;99.90
22112;DHT22;11222;50.872;4.312;2023-03-23T11:58:18;17.70;99.90
22112;DHT22;11222;50.872;4.312;2023-03-23T12:00:58;16.80;99.90
22112;DHT22;11222;50.872;4.312;2023-03-23T12:06:09;16.00;99.90
22112;DHT22;11222;50.872;4.312;2023-03-23T12:09:58;16.60;99.90
22112;DHT22;11222;50.872;4.312;2023-03-23T12:12:11;16.20;99.90
22112;DHT22;11222;50.872;4.312;2023-03-23T12:14:46;16.30;99.90
22112;DHT22;11222;50.872;4.312;2023-03-23T12:22:37;16.90;99.90
22112;DHT22;11222;50.872;4.312;2023-03-23T12:28:11;17.50;99.90
22112;DHT22;11222;50.872;4.312;2023-03-23T12:31:05;16.80;99.90
22112;DHT22;11222;50.872;4.312;2023-03-23T12:41:41;16.40;99.90
22112;DHT22;11222;50.872;4.312;2023-03-23T12:44:12;16.40;99.90
22112;DHT22;11222;50.872;4.312;2023-03-23T12:49:16;16.40;99.90
22112;DHT22;11222;50.872;4.312;2023-03-23T12:52:09;16.40;99.90
22112;DHT22;11222;50.872;4.312;2023-03-23T12:54:51;16.50;99.90
22112;DHT22;11222;50.872;4.312;2023-03-23T12:57:47;16.30;99.90
22112;DHT22;11222;50.872;4.312;2023-03-23T13:08:40;16.10;99.90
22112;DHT22;11222;50.872;4.312;2023-03-23T13:11:25;15.90;99.90
22112;DHT22;11222;50.872;4.312;2023-03-23T13:13:55;15.80;99.90
22112;DHT22;11222;50.872;4.312;2023-03-23T13:22:02;15.80;99.90
22112;DHT22;11222;50.872;4.312;2023-03-23T13:24:33;16.00;99.90
22112;DHT22;11222;50.872;4.312;2023-03-23T13:27:00;16.00;99.90
22112;DHT22;11222;50.872;4.312;2023-03-23T13:29:27;16.10;99.90
22112;DHT22;11222;50.872;4.312;2023-03-23T13:32:17;16.00;99.90
22112;DHT22;11222;50.872;4.312;2023-03-23T13:34:43;16.10;99.90
22112;DHT22;11222;50.872;4.312;2023-03-23T13:37:23;16.20;99.90
22112;DHT22;11222;50.872;4.312;2023-03-23T13:42:36;16.30;99.90
22112;DHT22;11222;50.872;4.312;2023-03-23T13:45:19;16.50;99.90
22112;DHT22;11222;50.872;4.312;2023-03-23T13:47:46;16.50;99.90
22112;DHT22;11222;50.872;4.312;2023-03-23T13:50:43;16.50;99.90
22112;DHT22;11222;50.872;4.312;2023-03-23T13:56:21;16.30;99.90
22112;DHT22;11222;50.872;4.312;2023-03-23T13:58:50;16.10;99.90
22112;DHT22;11222;50.872;4.312;2023-03-23T14:01:31;15.70;99.90
22112;DHT22;11222;50.872;4.312;2023-03-23T14:03:59;15.60;99.90
22112;DHT22;11222;50.872;4.312;2023-03-23T14:06:26;15.40;99.90
22112;DHT22;11222;50.872;4.312;2023-03-23T14:09:05;15.40;99.90
22112;DHT22;11222;50.872;4.312;2023-03-23T14:11:32;15.40;99.90
22112;DHT22;11222;50.872;4.312;2023-03-23T14:14:06;15.50;99.90
22112;DHT22;11222;50.872;4.312;2023-03-23T14:16:37;15.50;99.90
22112;DHT22;11222;50.872;4.312;2023-03-23T14:19:04;15.50;99.90
22112;DHT22;11222;50.872;4.312;2023-03-23T14:21:42;15.30;99.90
22112;DHT22;11222;50.872;4.312;2023-03-23T14:24:20;15.50;99.90
22112;DHT22;11222;50.872;4.312;2023-03-23T14:26:48;15.60;99.90
22112;DHT22;11222;50.872;4.312;2023-03-23T14:29:18;15.60;99.90
22112;DHT22;11222;50.872;4.312;2023-03-23T14:31:44;15.70;99.90
22112;DHT22;11222;50.872;4.312;2023-03-23T14:34:19;15.70;99.90
22112;DHT22;11222;50.872;4.312;2023-03-23T14:36:45;15.70;99.90
22112;DHT22;11222;50.872;4.312;2023-03-23T14:39:24;15.60;99.90
22112;DHT22;11222;50.872;4.312;2023-03-23T14:41:53;15.60;99.90
22112;DHT22;11222;50.872;4.312;2023-03-23T14:44:31;15.50;99.90
22112;DHT22;11222;50.872;4.312;2023-03-23T14:47:02;15.30;99.90
22112;DHT22;11222;50.872;4.312;2023-03-23T14:49:31;15.00;99.90
22112;DHT22;11222;50.872;4.312;2023-03-23T14:52:03;15.10;99.90
22112;DHT22;11222;50.872;4.312;2023-03-23T14:54:33;15.20;99.90
22112;DHT22;11222;50.872;4.312;2023-03-23T14:57:09;15.30;99.90
22112;DHT22;11222;50.872;4.312;2023-03-23T14:59:36;15.20;99.90
22112;DHT22;11222;50.872;4.312;2023-03-23T15:02:02;15.20;99.90
22112;DHT22;11222;50.872;4.312;2023-03-23T15:04:28;15.20;99.90
22112;DHT22;11222;50.872;4.312;2023-03-23T15:06:59;15.20;99.90
22112;DHT22;11222;50.872;4.312;2023-03-23T15:09:25;15.30;99.90
22112;DHT22;11222;50.872;4.312;2023-03-23T15:11:58;15.40;99.90
22112;DHT22;11222;50.872;4.312;2023-03-23T15:14:31;15.50;99.90
22112;DHT22;11222;50.872;4.312;2023-03-23T15:16:59;15.50;99.90
22112;DHT22;11222;50.872;4.312;2023-03-23T15:22:30;15.50;99.90
22112;DHT22;11222;50.872;4.312;2023-03-23T15:25:10;15.60;99.90
22112;DHT22;11222;50.872;4.312;2023-03-23T15:27:51;15.60;99.90
22112;DHT22;11222;50.872;4.312;2023-03-23T15:33:00;15.80;99.90
22112;DHT22;11222;50.872;4.312;2023-03-23T15:35:27;15.70;99.90
22112;DHT22;11222;50.872;4.312;2023-03-23T15:37:58;15.70;99.90
22112;DHT22;11222;50.872;4.312;2023-03-23T15:40:25;15.70;99.90
22112;DHT22;11222;50.872;4.312;2023-03-23T15:43:16;15.80;99.90
22112;DHT22;11222;50.872;4.312;2023-03-23T15:46:00;15.80;99.90
22112;DHT22;11222;50.872;4.312;2023-03-23T15:48:50;15.70;99.90
22112;DHT22;11222;50.872;4.312;2023-03-23T15:51:18;15.50;99.90
22112;DHT22;11222;50.872;4.312;2023-03-23T15:53:44;15.40;99.90
22112;DHT22;11222;50.872;4.312;2023-03-23T15:56:13;15.30;99.90
22112;DHT22;11222;50.872;4.312;2023-03-23T15:58:39;15.40;99.90
22112;DHT22;11222;50.872;4.312;2023-03-23T16:01:10;15.40;99.90
22112;DHT22;11222;50.872;4.312;2023-03-23T16:03:51;15.50;99.90
22112;DHT22;11222;50.872;4.312;2023-03-23T16:06:19;15.40;99.90
22112;DHT22;11222;50.872;4.312;2023-03-23T16:08:45;15.40;99.90
22112;DHT22;11222;50.872;4.312;2023-03-23T16:11:13;15.40;99.90
22112;DHT22;11222;50.872;4.312;2023-03-23T16:13:39;15.40;99.90
22112;DHT22;11222;50.872;4.312;2023-03-23T16:16:15;15.40;99.90
22112;DHT22;11222;50.872;4.312;2023-03-23T16:18:42;15.50;99.90
22112;DHT22;11222;50.872;4.312;2023-03-23T16:21:08;15.60;99.90
22112;DHT22;11222;50.872;4.312;2023-03-23T16:23:34;15.60;99.90
22112;DHT22;11222;50.872;4.312;2023-03-23T16:26:00;15.60;99.90
22112;DHT22;11222;50.872;4.312;2023-03-23T16:28:25;15.50;99.90
22112;DHT22;11222;50.872;4.312;2023-03-23T16:30:51;15.60;99.90
22112;DHT22;11222;50.872;4.312;2023-03-23T16:33:17;15.60;99.90
22112;DHT22;11222;50.872;4.312;2023-03-23T16:35:43;15.70;99.90
22112;DHT22;11222;50.872;4.312;2023-03-23T16:38:15;15.80;99.90
22112;DHT22;11222;50.872;4.312;2023-03-23T16:40:45;15.70;99.90
22112;DHT22;11222;50.872;4.312;2023-03-23T16:43:11;15.60;99.90
22112;DHT22;11222;50.872;4.312;2023-03-23T16:45:39;15.60;99.90
22112;DHT22;11222;50.872;4.312;2023-03-23T16:48:05;15.50;99.90
22112;DHT22;11222;50.872;4.312;2023-03-23T16:50:33;15.60;99.90
22112;DHT22;11222;50.872;4.312;2023-03-23T16:52:59;15.60;99.90
22112;DHT22;11222;50.872;4.312;2023-03-23T16:55:25;15.50;99.90
22112;DHT22;11222;50.872;4.312;2023-03-23T16:57:53;15.40;99.90
22112;DHT22;11222;50.872;4.312;2023-03-23T17:00:19;15.30;99.90
22112;DHT22;11222;50.872;4.312;2023-03-23T17:02:48;15.30;99.90
22112;DHT22;11222;50.872;4.312;2023-03-23T17:05:18;15.30;99.90
22112;DHT22;11222;50.872;4.312;2023-03-23T17:07:45;15.30;99.90
22112;DHT22;11222;50.872;4.312;2023-03-23T17:10:12;15.30;99.90
22112;DHT22;11222;50.872;4.312;2023-03-23T17:12:38;15.30;99.90
22112;DHT22;11222;50.872;4.312;2023-03-23T17:15:05;15.30;99.90
22112;DHT22;11222;50.872;4.312;2023-03-23T17:17:31;15.30;99.90
22112;DHT22;11222;50.872;4.312;2023-03-23T17:19:57;15.30;99.90
22112;DHT22;11222;50.872;4.312;2023-03-23T17:22:23;15.30;99.90
22112;DHT22;11222;50.872;4.312;2023-03-23T17:24:49;15.30;99.90
22112;DHT22;11222;50.872;4.312;2023-03-23T17:27:16;15.30;99.90
22112;DHT22;11222;50.872;4.312;2023-03-23T17:29:43;15.40;99.90
22112;DHT22;11222;50.872;4.312;2023-03-23T17:32:09;15.40;99.90
22112;DHT22;11222;50.872;4.312;2023-03-23T17:34:35;15.40;99.90
22112;DHT22;11222;50.872;4.312;2023-03-23T17:37:00;15.50;99.90
22112;DHT22;11222;50.872;4.312;2023-03-23T17:39:26;15.50;99.90
22112;DHT22;11222;50.872;4.312;2023-03-23T17:41:52;15.40;99.90
22112;DHT22;11222;50.872;4.312;2023-03-23T17:44:18;15.50;99.90